createdAt,value
2022-12-01T00:00:45.032Z,0.40
2022-12-01T00:05:46.708Z,0.30
2022-12-01T00:10:48.372Z,0.20
2022-12-01T00:15:49.956Z,0.30
2022-12-01T00:20:51.535Z,0.20
2022-12-01T00:25:53.145Z,0.20
2022-12-01T00:30:54.681Z,0.10
2022-12-01T00:35:56.183Z,0.10
2022-12-01T00:40:57.728Z,0.10
2022-12-01T00:45:59.394Z,0.20
2022-12-01T00:51:01.033Z,0.10
2022-12-01T00:56:02.644Z,0.10
2022-12-01T01:01:04.310Z,0.10
2022-12-01T01:06:06.077Z,0.10
2022-12-01T01:11:07.686Z,0.10
2022-12-01T01:16:09.367Z,0.10
2022-12-01T01:21:11.050Z,0.10
2022-12-01T01:26:12.668Z,0.00
2022-12-01T01:31:14.355Z,0.00
2022-12-01T01:36:15.982Z,0.00
2022-12-01T01:41:17.558Z,0.00
2022-12-01T01:46:19.712Z,0.00
2022-12-01T01:51:21.567Z,-0.10
2022-12-01T01:56:23.206Z,-0.10
2022-12-01T02:01:24.804Z,-0.20
2022-12-01T02:06:26.420Z,-0.20
2022-12-01T02:11:28.025Z,-0.30
2022-12-01T02:16:29.680Z,-0.30
2022-12-01T02:21:31.273Z,-0.30
2022-12-01T02:26:32.839Z,-0.20
2022-12-01T02:31:34.457Z,-0.20
2022-12-01T02:36:36.025Z,-0.20
2022-12-01T02:41:37.663Z,-0.20
2022-12-01T02:46:39.255Z,-0.20
2022-12-01T02:51:40.843Z,-0.10
2022-12-01T02:56:42.476Z,0.00
2022-12-01T03:01:44.130Z,0.00
2022-12-01T03:06:45.804Z,0.00
2022-12-01T03:11:47.308Z,0.00
2022-12-01T03:16:48.853Z,0.00
2022-12-01T03:21:50.512Z,0.10
2022-12-01T03:26:52.110Z,0.10
2022-12-01T03:31:53.719Z,0.10
2022-12-01T03:36:55.273Z,0.20
2022-12-01T03:41:56.927Z,0.20
2022-12-01T03:46:58.512Z,0.30
2022-12-01T03:52:00.121Z,0.30
2022-12-01T03:57:01.743Z,0.40
2022-12-01T04:02:03.509Z,0.50
2022-12-01T04:07:05.279Z,0.60
2022-12-01T04:12:06.888Z,0.70
2022-12-01T04:17:08.547Z,0.80
2022-12-01T04:22:10.199Z,0.70
2022-12-01T04:27:11.781Z,0.70
2022-12-01T04:32:13.383Z,0.80
2022-12-01T04:37:14.967Z,0.90
2022-12-01T04:42:16.494Z,0.90
2022-12-01T04:47:18.059Z,1.00
2022-12-01T04:52:19.701Z,1.10
2022-12-01T04:57:21.368Z,1.10
2022-12-01T05:02:23.015Z,1.20
2022-12-01T05:07:24.668Z,1.20
2022-12-01T05:12:26.361Z,1.20
2022-12-01T05:17:31.538Z,1.30
2022-12-01T05:23:03.913Z,1.30
2022-12-01T05:27:57.176Z,1.30
2022-12-01T05:32:58.714Z,1.40
2022-12-01T05:38:04.575Z,1.40
2022-12-01T05:43:09.135Z,1.40
2022-12-01T05:48:10.741Z,1.40
2022-12-01T05:53:12.317Z,1.40
2022-12-01T05:58:13.917Z,1.40
2022-12-01T06:03:15.438Z,1.50
2022-12-01T06:08:17.045Z,1.50
2022-12-01T06:13:18.664Z,1.50
2022-12-01T06:18:21.729Z,1.50
2022-12-01T06:23:27.601Z,1.60
2022-12-01T06:28:31.613Z,1.60
2022-12-01T06:33:33.211Z,1.60
2022-12-01T06:38:34.853Z,1.60
2022-12-01T06:43:36.416Z,1.70
2022-12-01T06:48:37.915Z,1.70
2022-12-01T06:53:39.591Z,1.60
2022-12-01T06:58:41.120Z,1.60
2022-12-01T07:03:42.762Z,1.70
2022-12-01T07:08:44.325Z,1.80
2022-12-01T07:13:45.820Z,1.90
2022-12-01T07:18:47.278Z,1.90
2022-12-01T07:23:48.849Z,1.90
2022-12-01T07:28:50.354Z,2.00
2022-12-01T07:33:51.870Z,2.00
2022-12-01T07:38:53.366Z,2.10
2022-12-01T07:43:54.839Z,2.10
2022-12-01T07:48:56.397Z,2.10
2022-12-01T07:53:57.893Z,2.10
2022-12-01T07:58:59.353Z,2.10
2022-12-01T08:04:00.835Z,2.20
2022-12-01T08:09:02.388Z,2.30
2022-12-01T08:14:03.979Z,2.40
2022-12-01T08:19:05.542Z,2.60
2022-12-01T08:24:07.123Z,2.60
2022-12-01T08:29:08.729Z,2.80
2022-12-01T08:34:10.286Z,2.90
2022-12-01T08:39:11.886Z,3.00
2022-12-01T08:44:13.485Z,3.10
2022-12-01T08:49:15.145Z,3.20
2022-12-01T08:54:16.634Z,3.30
2022-12-01T08:59:18.096Z,3.40
2022-12-01T09:04:19.633Z,3.50
2022-12-01T09:09:21.130Z,3.50
2022-12-01T09:14:22.902Z,3.60
2022-12-01T09:19:25.526Z,3.40
2022-12-01T09:24:27.081Z,3.30
2022-12-01T09:29:28.589Z,3.30
2022-12-01T09:34:30.106Z,3.30
2022-12-01T09:39:31.765Z,3.40
2022-12-01T09:44:33.447Z,3.50
2022-12-01T09:49:35.064Z,3.50
2022-12-01T09:54:36.688Z,3.50
2022-12-01T09:59:38.261Z,3.70
2022-12-01T10:04:39.804Z,3.70
2022-12-01T10:09:41.340Z,3.80
2022-12-01T10:14:42.892Z,3.90
2022-12-01T10:19:44.387Z,3.90
2022-12-01T10:24:46.095Z,3.70
2022-12-01T10:29:48.173Z,3.50
2022-12-01T10:34:49.818Z,3.50
2022-12-01T10:39:51.694Z,3.50
2022-12-01T10:44:53.652Z,3.50
2022-12-01T10:49:55.184Z,3.30
2022-12-01T10:54:56.671Z,3.20
2022-12-01T10:59:58.191Z,3.30
2022-12-01T11:04:59.684Z,3.30
2022-12-01T11:10:01.167Z,3.30
2022-12-01T11:15:02.661Z,3.40
2022-12-01T11:20:04.720Z,3.30
2022-12-01T11:25:06.614Z,3.20
2022-12-01T11:30:08.245Z,3.30
2022-12-01T11:35:09.746Z,3.30
2022-12-01T11:40:11.700Z,3.30
2022-12-01T11:45:13.582Z,3.30
2022-12-01T11:50:15.108Z,3.20
2022-12-01T11:55:16.854Z,3.10
2022-12-01T12:00:18.412Z,3.20
2022-12-01T12:05:19.899Z,3.20
2022-12-01T12:10:21.390Z,3.20
2022-12-01T12:15:22.911Z,3.10
2022-12-01T12:20:24.386Z,3.00
2022-12-01T12:25:25.911Z,3.10
2022-12-01T12:30:27.398Z,3.10
2022-12-01T12:35:28.895Z,3.10
2022-12-01T12:40:30.398Z,3.00
2022-12-01T12:45:31.945Z,3.00
2022-12-01T12:50:33.442Z,2.90
2022-12-01T12:55:34.983Z,2.90
2022-12-01T13:00:36.525Z,2.90
2022-12-01T13:05:38.075Z,3.10
2022-12-01T13:10:39.671Z,3.10
2022-12-01T13:15:41.322Z,3.10
2022-12-01T13:20:42.963Z,3.10
2022-12-01T13:25:44.548Z,3.00
2022-12-01T13:30:46.310Z,2.90
2022-12-01T13:36:01.341Z,2.80
2022-12-01T13:41:09.451Z,2.80
2022-12-01T13:46:11.185Z,2.80
2022-12-01T13:51:12.950Z,2.80
2022-12-01T13:56:14.582Z,2.80
2022-12-01T14:01:16.288Z,2.80
2022-12-01T14:06:18.055Z,2.80
2022-12-01T14:11:19.568Z,2.70
2022-12-01T14:16:21.205Z,2.70
2022-12-01T14:21:22.793Z,2.70
2022-12-01T14:26:24.280Z,2.70
2022-12-01T14:31:25.805Z,2.70
2022-12-01T14:36:27.340Z,2.70
2022-12-01T14:41:28.870Z,2.70
2022-12-01T14:46:30.841Z,2.70
2022-12-01T14:51:33.453Z,2.70
2022-12-01T14:56:35.062Z,2.60
2022-12-01T15:01:36.669Z,2.50
2022-12-01T15:06:38.278Z,2.50
2022-12-01T15:11:39.792Z,2.50
2022-12-01T15:16:41.433Z,2.50
2022-12-01T15:21:43.112Z,2.50
2022-12-01T15:26:45.937Z,2.60
2022-12-01T15:31:51.069Z,2.60
2022-12-01T15:36:52.788Z,2.60
2022-12-01T15:41:54.364Z,2.60
2022-12-01T15:46:55.873Z,2.60
2022-12-01T15:51:57.439Z,2.70
2022-12-01T15:56:59.119Z,2.60
2022-12-01T16:02:00.735Z,2.60
2022-12-01T16:07:02.313Z,2.60
2022-12-01T16:12:04.062Z,2.60
2022-12-01T16:17:05.744Z,2.60
2022-12-01T16:22:07.454Z,2.50
2022-12-01T16:27:09.155Z,2.60
2022-12-01T16:32:26.431Z,2.60
2022-12-01T16:37:28.186Z,2.60
2022-12-01T16:42:29.754Z,2.60
2022-12-01T16:47:31.259Z,2.60
2022-12-01T16:52:48.015Z,2.60
2022-12-01T16:57:49.545Z,2.60
2022-12-01T17:02:51.114Z,2.60
2022-12-01T17:07:52.747Z,2.60
2022-12-01T17:18:16.537Z,2.60
2022-12-01T17:23:24.152Z,2.60
2022-12-01T17:28:28.127Z,2.60
2022-12-01T17:33:29.616Z,2.60
2022-12-01T17:38:31.125Z,2.60
2022-12-01T17:43:32.631Z,2.60
2022-12-01T17:48:34.136Z,2.50
2022-12-01T17:53:36.419Z,2.60
2022-12-01T17:58:38.809Z,2.60
2022-12-01T18:03:40.508Z,2.60
2022-12-01T22:59:16.804Z,1.70
2022-12-01T23:04:18.314Z,1.70
2022-12-01T23:09:19.764Z,1.70
2022-12-01T23:14:21.235Z,1.60
2022-12-01T23:19:22.720Z,1.60
2022-12-01T23:24:24.162Z,1.70
2022-12-01T23:29:25.608Z,1.70
2022-12-01T23:34:27.049Z,1.70
2022-12-01T23:39:28.506Z,1.60
2022-12-01T23:44:29.956Z,1.60
2022-12-01T23:49:31.436Z,1.60
2022-12-01T23:54:32.890Z,1.70
2022-12-01T23:59:34.346Z,1.70
